Time;durP1;ratioP1;P1;durP2;ratioP2;P2;SDS_P1;SDS_P2;PMS_P1;PMS_P2;Temp;Humidity;BMP_temperature;BMP_pressure;BME280_temperature;BME280_humidity;BME280_pressure;Samples;Min_cycle;Max_cycle;Signal;HPM_P1;HPM_P2
2023/10/27 00:01:17;;;;;;;1.77;1.30;;;17.80;49.40;;;;;;6078692;23;20292;-86
2023/10/27 00:03:45;;;;;;;4.80;1.60;;;17.70;49.40;;;;;;6103217;23;20521;-87
2023/10/27 00:06:17;;;;;;;1.52;1.38;;;17.70;49.40;;;;;;6127865;23;20564;-86
2023/10/27 00:08:44;;;;;;;3.38;1.27;;;17.70;49.40;;;;;;6127562;23;20144;-85
2023/10/27 00:11:14;;;;;;;1.13;1.00;;;17.80;49.50;;;;;;6103421;23;20171;-85
2023/10/27 00:13:44;;;;;;;1.77;1.33;;;17.70;49.50;;;;;;6078918;23;20226;-87
2023/10/27 00:16:16;;;;;;;1.60;1.30;;;17.70;49.50;;;;;;6102599;23;20199;-85
2023/10/27 00:18:45;;;;;;;1.30;1.13;;;17.70;49.60;;;;;;6078627;23;20160;-85
2023/10/27 00:21:15;;;;;;;1.63;1.30;;;17.70;49.50;;;;;;6188161;23;20143;-85
2023/10/27 00:23:40;;;;;;;1.20;1.10;;;17.70;49.60;;;;;;6137613;23;20151;-86
2023/10/27 00:26:06;;;;;;;1.58;1.30;;;17.70;49.60;;;;;;6163053;23;20154;-85
2023/10/27 00:28:32;;;;;;;1.88;1.35;;;17.70;49.60;;;;;;6165584;23;20145;-85
2023/10/27 00:31:00;;;;;;;1.95;1.45;;;17.70;49.70;;;;;;6168512;23;20476;-86
2023/10/27 00:33:26;;;;;;;1.83;1.35;;;17.70;49.60;;;;;;6144431;23;20643;-86
2023/10/27 00:35:53;;;;;;;1.73;1.13;;;17.70;49.60;;;;;;6168218;23;20169;-85
2023/10/27 00:38:23;;;;;;;1.30;1.20;;;17.70;49.60;;;;;;6143322;23;20154;-85
2023/10/27 00:40:50;;;;;;;1.48;1.38;;;17.70;49.70;;;;;;6142109;23;20169;-86
2023/10/27 00:43:18;;;;;;;1.40;1.30;;;17.70;49.70;;;;;;6142304;23;20204;-86
2023/10/27 00:45:49;;;;;;;1.48;1.10;;;17.70;49.70;;;;;;6143460;23;20241;-85
2023/10/27 00:48:18;;;;;;;1.20;1.10;;;17.80;49.80;;;;;;6118561;23;20228;-85
2023/10/27 00:50:44;;;;;;;1.40;1.30;;;17.70;49.70;;;;;;6143934;23;20150;-84
2023/10/27 00:53:11;;;;;;;2.05;1.30;;;17.70;49.70;;;;;;6193501;23;20153;-86
2023/10/27 00:55:37;;;;;;;1.70;1.27;;;17.70;49.80;;;;;;6168732;23;20166;-86
2023/10/27 00:58:03;;;;;;;2.22;1.20;;;17.70;49.80;;;;;;6193043;23;20149;-86
2023/10/27 01:00:32;;;;;;;2.58;1.30;;;17.70;49.70;;;;;;6169100;23;20138;-85
2023/10/27 01:03:01;;;;;;;1.45;1.23;;;17.60;49.70;;;;;;6169849;23;20146;-85
2023/10/27 01:05:34;;;;;;;2.13;1.50;;;17.70;49.70;;;;;;6118292;23;20529;-86
2023/10/27 01:08:00;;;;;;;1.83;1.40;;;17.70;49.80;;;;;;6117860;23;20150;-85
2023/10/27 01:10:28;;;;;;;1.67;1.52;;;17.70;49.70;;;;;;6143723;23;20153;-86
2023/10/27 01:12:54;;;;;;;2.55;1.60;;;17.70;49.80;;;;;;6143746;23;20192;-86
2023/10/27 01:15:29;;;;;;;1.48;1.38;;;17.70;49.80;;;;;;6144015;23;20174;-84
2023/10/27 01:18:00;;;;;;;2.85;1.40;;;17.70;49.90;;;;;;6145515;23;20201;-84
2023/10/27 01:20:28;;;;;;;1.42;1.30;;;17.70;49.90;;;;;;6119807;23;20234;-86
2023/10/27 01:22:53;;;;;;;1.35;1.25;;;17.80;49.90;;;;;;6144697;23;20153;-85
2023/10/27 01:25:22;;;;;;;1.55;1.40;;;17.70;49.90;;;;;;6169346;23;20142;-84
2023/10/27 01:27:50;;;;;;;1.48;1.30;;;17.70;49.80;;;;;;6144953;23;20155;-84
2023/10/27 01:30:17;;;;;;;1.60;1.33;;;17.70;49.80;;;;;;6144191;23;20280;-85
2023/10/27 01:32:44;;;;;;;1.42;1.30;;;17.70;50.50;;;;;;6168903;23;20137;-86
2023/10/27 01:35:13;;;;;;;1.48;1.30;;;17.60;49.80;;;;;;6168225;23;20162;-86
2023/10/27 01:37:42;;;;;;;1.60;1.50;;;17.60;49.80;;;;;;6168723;23;20189;-86
2023/10/27 01:40:08;;;;;;;2.13;1.30;;;17.70;49.90;;;;;;6168212;23;20142;-85
2023/10/27 01:42:35;;;;;;;1.60;1.30;;;17.70;50.00;;;;;;6143768;23;20134;-86
2023/10/27 01:45:04;;;;;;;1.35;1.25;;;17.70;49.90;;;;;;6144103;23;20620;-85
2023/10/27 01:47:32;;;;;;;1.50;1.27;;;17.60;49.90;;;;;;6144407;23;20153;-86
2023/10/27 01:49:58;;;;;;;1.30;1.20;;;17.70;49.80;;;;;;6144028;23;20149;-85
2023/10/27 01:52:24;;;;;;;1.88;1.50;;;17.70;50.00;;;;;;6168436;23;20126;-85
2023/10/27 01:54:53;;;;;;;1.65;1.55;;;17.70;50.10;;;;;;6167223;23;20205;-86
2023/10/27 01:57:22;;;;;;;2.50;1.50;;;17.70;50.10;;;;;;6096048;23;20621;-85
2023/10/27 01:59:48;;;;;;;1.40;1.30;;;17.70;50.00;;;;;;6145105;23;20142;-85
2023/10/27 02:02:17;;;;;;;1.55;1.45;;;17.60;50.00;;;;;;6144267;23;20611;-85
2023/10/27 02:04:43;;;;;;;1.20;1.10;;;17.60;50.00;;;;;;6145678;23;20145;-85
2023/10/27 02:07:12;;;;;;;3.30;1.50;;;17.60;50.10;;;;;;6144396;23;20138;-86
2023/10/27 02:09:40;;;;;;;1.38;1.10;;;17.60;50.10;;;;;;6118343;23;20181;-85
2023/10/27 02:12:09;;;;;;;1.60;1.38;;;17.60;50.10;;;;;;6144548;23;20161;-88
2023/10/27 02:14:38;;;;;;;2.13;1.30;;;17.60;50.10;;;;;;6169739;23;20150;-85
2023/10/27 02:17:04;;;;;;;1.50;1.40;;;17.60;50.10;;;;;;6144122;23;20150;-84
2023/10/27 02:19:30;;;;;;;1.83;1.20;;;17.50;50.10;;;;;;6168886;23;20181;-87
2023/10/27 02:21:59;;;;;;;1.52;1.30;;;17.60;50.20;;;;;;6169078;23;20131;-85
2023/10/27 02:24:28;;;;;;;1.25;1.13;;;17.60;50.20;;;;;;6143537;23;20195;-86
2023/10/27 02:26:58;;;;;;;2.72;1.50;;;17.60;50.30;;;;;;6145067;23;20145;-85
2023/10/27 02:29:26;;;;;;;1.33;1.08;;;17.60;50.30;;;;;;6113812;23;20514;-85
2023/10/27 02:31:52;;;;;;;1.50;1.40;;;17.60;50.30;;;;;;6139190;23;20241;-84
2023/10/27 02:34:18;;;;;;;1.73;1.50;;;17.60;50.30;;;;;;6164297;23;20203;-85
2023/10/27 02:36:44;;;;;;;1.58;1.48;;;17.60;50.30;;;;;;6138566;23;20182;-85
2023/10/27 02:39:10;;;;;;;1.75;1.20;;;17.60;50.20;;;;;;6163106;23;20135;-87
2023/10/27 02:41:36;;;;;;;1.75;1.50;;;17.60;50.30;;;;;;6139077;23;20154;-87
2023/10/27 02:44:03;;;;;;;2.20;1.30;;;17.60;50.40;;;;;;6163623;23;20138;-85
2023/10/27 02:46:33;;;;;;;1.45;1.30;;;17.50;50.40;;;;;;6188193;23;20147;-85
2023/10/27 02:49:02;;;;;;;1.90;1.40;;;17.50;50.30;;;;;;6137952;23;20150;-85
2023/10/27 02:51:32;;;;;;;1.20;1.10;;;17.50;50.40;;;;;;6133131;23;20194;-87
2023/10/27 02:54:01;;;;;;;1.42;1.33;;;17.60;50.30;;;;;;6059882;23;20500;-84
2023/10/27 02:56:29;;;;;;;1.40;1.30;;;17.50;50.30;;;;;;6084825;23;20198;-85
2023/10/27 02:58:55;;;;;;;1.40;1.30;;;17.50;50.40;;;;;;6060192;23;20601;-85
2023/10/27 03:01:22;;;;;;;1.75;1.45;;;17.60;51.20;;;;;;6110297;23;20155;-85
2023/10/27 03:03:49;;;;;;;1.63;1.27;;;17.50;50.50;;;;;;6134883;23;20154;-84
2023/10/27 03:06:15;;;;;;;2.28;1.30;;;17.50;50.50;;;;;;6110018;23;20148;-86
2023/10/27 03:08:41;;;;;;;1.38;1.27;;;17.50;50.50;;;;;;6134304;23;20155;-84
2023/10/27 03:11:12;;;;;;;1.55;1.30;;;17.50;50.50;;;;;;6108831;23;20555;-87
2023/10/27 03:13:41;;;;;;;1.55;1.45;;;17.60;50.50;;;;;;6085432;23;20603;-86
2023/10/27 03:16:07;;;;;;;2.00;1.42;;;17.50;50.50;;;;;;6137325;23;20495;-87
2023/10/27 03:18:38;;;;;;;1.30;1.20;;;17.50;50.50;;;;;;6140784;23;20182;-86
2023/10/27 03:21:11;;;;;;;1.40;1.30;;;17.50;50.50;;;;;;6139551;23;20158;-85
2023/10/27 03:23:37;;;;;;;1.15;1.05;;;17.50;50.50;;;;;;6164799;23;20617;-87
2023/10/27 03:26:06;;;;;;;1.55;1.45;;;17.50;50.50;;;;;;6189660;23;20139;-85
2023/10/27 03:28:34;;;;;;;1.40;1.30;;;17.50;50.50;;;;;;6140716;23;20226;-86
2023/10/27 03:31:00;;;;;;;1.90;1.45;;;17.60;50.60;;;;;;6195381;23;20157;-84
2023/10/27 03:33:27;;;;;;;1.70;1.40;;;17.50;50.50;;;;;;6134495;23;20147;-85
2023/10/27 03:35:53;;;;;;;1.30;1.10;;;17.50;50.60;;;;;;6085066;23;20254;-85
2023/10/27 03:38:19;;;;;;;1.20;1.10;;;17.50;50.60;;;;;;6085579;23;20155;-86
2023/10/27 03:40:45;;;;;;;1.85;1.48;;;17.50;50.70;;;;;;6085234;23;20595;-85
2023/10/27 03:43:14;;;;;;;3.15;1.55;;;17.50;50.70;;;;;;6085612;23;20579;-85
2023/10/27 03:45:40;;;;;;;1.35;1.17;;;17.50;50.70;;;;;;6086328;23;20155;-86
2023/10/27 03:48:09;;;;;;;1.85;1.30;;;17.50;50.80;;;;;;6085310;23;20155;-87
2023/10/27 03:50:39;;;;;;;1.45;1.27;;;17.50;50.80;;;;;;6046677;23;20162;-86
2023/10/27 03:53:05;;;;;;;1.25;1.15;;;17.50;50.80;;;;;;6017791;23;20165;-85
2023/10/27 03:55:31;;;;;;;1.58;1.20;;;17.50;50.70;;;;;;6018664;23;20184;-86
2023/10/27 03:58:13;;;;;;;1.92;1.38;;;17.40;50.70;;;;;;5995168;23;20158;-86
2023/10/27 04:00:39;;;;;;;1.48;1.30;;;17.50;50.70;;;;;;5995342;23;20161;-85
2023/10/27 04:03:09;;;;;;;1.52;1.42;;;17.50;50.80;;;;;;6018669;23;20177;-85
2023/10/27 04:05:35;;;;;;;2.08;1.27;;;17.40;50.70;;;;;;6074777;23;20166;-85
2023/10/27 04:08:05;;;;;;;1.40;1.30;;;17.50;50.80;;;;;;6099727;23;20271;-86
2023/10/27 04:10:35;;;;;;;1.30;1.20;;;17.50;50.50;;;;;;6027766;23;20532;-85
2023/10/27 04:13:07;;;;;;;1.42;1.30;;;17.50;50.70;;;;;;6051482;23;20152;-85
2023/10/27 04:15:33;;;;;;;1.65;1.33;;;17.50;50.80;;;;;;6075548;23;20199;-87
2023/10/27 04:18:02;;;;;;;2.05;1.30;;;17.50;50.80;;;;;;6051115;23;20148;-85
2023/10/27 04:20:29;;;;;;;1.60;1.30;;;17.50;50.80;;;;;;6056148;23;20219;-86
2023/10/27 04:22:57;;;;;;;1.67;1.30;;;17.50;50.80;;;;;;6164150;23;20150;-85
2023/10/27 04:25:28;;;;;;;1.95;1.25;;;17.50;50.80;;;;;;6114085;23;20184;-86
2023/10/27 04:27:55;;;;;;;1.50;1.20;;;17.40;50.90;;;;;;6114691;23;20221;-86
2023/10/27 04:30:20;;;;;;;1.48;1.38;;;17.50;50.90;;;;;;6164103;23;20190;-84
2023/10/27 04:32:47;;;;;;;1.30;1.20;;;17.50;50.90;;;;;;6164826;23;20139;-85
2023/10/27 04:35:13;;;;;;;1.40;1.30;;;17.40;50.90;;;;;;6139896;23;20271;-85
2023/10/27 04:37:43;;;;;;;1.45;1.25;;;17.40;50.90;;;;;;6164902;23;20212;-84
2023/10/27 04:40:12;;;;;;;2.30;1.45;;;17.40;51.00;;;;;;6138939;23;20150;-85
2023/10/27 04:42:37;;;;;;;1.38;1.27;;;17.50;51.00;;;;;;6139999;23;20149;-85
2023/10/27 04:45:05;;;;;;;1.42;1.20;;;17.40;51.00;;;;;;6216050;23;20209;-85
2023/10/27 04:47:30;;;;;;;1.60;1.35;;;17.40;51.00;;;;;;6164114;23;20529;-85
2023/10/27 04:49:56;;;;;;;2.08;1.25;;;17.50;51.00;;;;;;6164179;23;20229;-84
2023/10/27 04:52:24;;;;;;;1.77;1.30;;;17.40;50.90;;;;;;6140179;23;20146;-87
2023/10/27 04:54:50;;;;;;;1.85;1.55;;;17.40;51.00;;;;;;6163803;23;20633;-85
2023/10/27 04:57:19;;;;;;;2.10;1.40;;;17.50;51.00;;;;;;6164389;23;20162;-87
2023/10/27 04:59:47;;;;;;;1.30;1.20;;;17.40;51.00;;;;;;6089912;23;20241;-85
2023/10/27 05:02:13;;;;;;;1.45;1.27;;;17.50;51.00;;;;;;6215922;23;20146;-85
2023/10/27 05:04:39;;;;;;;1.20;1.10;;;17.40;50.90;;;;;;6164758;23;20142;-85
2023/10/27 05:07:05;;;;;;;1.40;1.23;;;17.40;51.00;;;;;;6188968;23;20158;-87
2023/10/27 05:09:32;;;;;;;1.40;1.30;;;17.40;51.00;;;;;;6164591;23;20143;-85
2023/10/27 05:12:02;;;;;;;2.05;1.45;;;17.40;51.00;;;;;;6164105;23;20173;-85
2023/10/27 05:14:34;;;;;;;1.77;1.42;;;17.40;51.00;;;;;;6139152;23;20146;-85
2023/10/27 05:17:02;;;;;;;1.20;1.10;;;17.40;51.00;;;;;;6115489;23;20177;-85
2023/10/27 05:19:28;;;;;;;1.40;1.30;;;17.40;51.10;;;;;;6113784;23;20162;-85
2023/10/27 05:21:54;;;;;;;1.60;1.27;;;17.40;51.10;;;;;;6163739;23;20208;-86
2023/10/27 05:24:20;;;;;;;1.70;1.30;;;17.40;51.00;;;;;;6163939;23;20154;-87
2023/10/27 05:26:45;;;;;;;2.55;1.40;;;17.40;51.10;;;;;;6189359;23;20142;-86
2023/10/27 05:29:11;;;;;;;1.50;1.40;;;17.40;51.10;;;;;;6215092;23;20272;-86
2023/10/27 05:31:39;;;;;;;1.67;1.50;;;17.40;51.10;;;;;;6164263;23;20150;-85
2023/10/27 05:34:05;;;;;;;1.45;1.27;;;17.40;51.10;;;;;;6164799;23;20192;-84
2023/10/27 05:36:31;;;;;;;1.52;1.25;;;17.40;51.10;;;;;;6164169;23;20165;-85
2023/10/27 05:39:00;;;;;;;1.40;1.30;;;17.30;50.90;;;;;;6189138;23;20168;-85
2023/10/27 05:41:25;;;;;;;1.48;1.10;;;17.50;50.70;;;;;;6189697;23;20196;-85
2023/10/27 05:43:54;;;;;;;1.45;1.17;;;17.50;50.40;;;;;;6139871;23;20574;-85
2023/10/27 05:46:21;;;;;;;1.27;1.17;;;17.50;50.20;;;;;;6140153;23;20153;-85
2023/10/27 05:48:47;;;;;;;1.85;1.35;;;17.50;50.10;;;;;;6164044;23;20157;-85
2023/10/27 05:51:17;;;;;;;1.30;1.20;;;17.60;49.80;;;;;;6164337;23;20292;-84
2023/10/27 05:53:43;;;;;;;1.40;1.30;;;17.60;49.40;;;;;;6138557;23;20150;-85
2023/10/27 05:56:11;;;;;;;1.20;1.10;;;17.70;49.20;;;;;;6139987;23;20188;-87
2023/10/27 05:58:37;;;;;;;1.40;1.27;;;17.70;49.10;;;;;;6164807;23;20469;-85
2023/10/27 06:01:06;;;;;;;1.40;1.30;;;17.70;49.10;;;;;;6140131;23;20245;-86
2023/10/27 06:03:33;;;;;;;1.27;1.17;;;17.80;48.80;;;;;;6165523;23;20470;-86
2023/10/27 06:06:00;;;;;;;1.52;1.15;;;17.70;48.60;;;;;;6139707;23;20193;-85
2023/10/27 06:08:26;;;;;;;1.10;1.00;;;17.80;48.60;;;;;;6140135;23;20174;-85
2023/10/27 06:10:52;;;;;;;1.20;1.10;;;17.80;48.40;;;;;;6164323;23;20146;-86
2023/10/27 06:13:22;;;;;;;1.30;1.20;;;17.80;48.60;;;;;;6164374;23;20184;-85
2023/10/27 06:15:48;;;;;;;1.30;1.17;;;17.80;48.20;;;;;;6138763;23;20185;-86
2023/10/27 06:18:17;;;;;;;1.30;1.20;;;17.80;48.30;;;;;;6163930;23;20189;-85
2023/10/27 06:20:43;;;;;;;1.10;1.00;;;17.80;48.40;;;;;;6139391;23;20142;-86
2023/10/27 06:23:10;;;;;;;1.63;1.52;;;17.80;48.00;;;;;;6139390;23;20153;-85
2023/10/27 06:25:35;;;;;;;1.35;1.25;;;17.80;48.00;;;;;;6139948;23;20150;-85
2023/10/27 06:28:03;;;;;;;1.33;1.23;;;17.80;48.00;;;;;;6189105;23;20149;-86
2023/10/27 06:30:29;;;;;;;1.45;1.35;;;17.80;47.80;;;;;;6134232;23;20222;-84
2023/10/27 06:32:59;;;;;;;1.25;1.15;;;17.80;47.80;;;;;;6135333;23;20150;-85
2023/10/27 06:35:28;;;;;;;1.92;1.25;;;17.80;47.80;;;;;;6087242;23;20186;-86
2023/10/27 06:37:54;;;;;;;1.38;1.20;;;17.80;47.60;;;;;;6135851;23;20171;-86
2023/10/27 06:40:22;;;;;;;1.60;1.20;;;17.90;47.60;;;;;;6160576;23;20230;-86
2023/10/27 06:42:48;;;;;;;2.00;1.20;;;17.90;47.50;;;;;;6137537;23;20213;-85
2023/10/27 06:45:14;;;;;;;1.45;1.35;;;17.90;47.40;;;;;;6136875;23;20154;-85
2023/10/27 06:47:40;;;;;;;1.38;1.20;;;17.80;47.40;;;;;;6138057;23;20194;-85
2023/10/27 06:50:06;;;;;;;1.40;1.10;;;17.80;48.00;;;;;;6161136;23;20138;-85
2023/10/27 06:52:34;;;;;;;1.20;1.10;;;17.90;47.40;;;;;;6162076;23;20131;-85
2023/10/27 06:55:03;;;;;;;1.50;1.40;;;17.80;47.30;;;;;;6136030;23;20225;-86
2023/10/27 06:57:30;;;;;;;1.70;1.30;;;17.90;47.20;;;;;;6135959;23;20158;-85
2023/10/27 06:59:56;;;;;;;1.58;1.20;;;17.90;47.30;;;;;;6137303;23;20154;-86
2023/10/27 07:02:23;;;;;;;1.20;1.10;;;17.90;47.20;;;;;;6136911;23;20146;-86
2023/10/27 07:04:49;;;;;;;1.58;1.33;;;17.90;47.10;;;;;;6161621;23;20259;-86
2023/10/27 07:07:15;;;;;;;1.40;1.30;;;17.90;47.20;;;;;;6160797;23;20579;-87
2023/10/27 07:09:44;;;;;;;1.40;1.30;;;17.90;47.00;;;;;;6160941;23;20153;-85
2023/10/27 07:12:10;;;;;;;1.15;1.15;;;17.90;47.00;;;;;;6134855;23;20185;-85
2023/10/27 07:14:38;;;;;;;1.33;1.23;;;17.90;47.00;;;;;;6136723;23;20165;-86
2023/10/27 07:17:06;;;;;;;1.20;1.10;;;17.90;46.90;;;;;;6087012;23;20209;-87
2023/10/27 07:19:35;;;;;;;1.30;1.20;;;17.90;46.80;;;;;;6135344;23;20165;-86
2023/10/27 07:22:06;;;;;;;1.38;1.20;;;17.90;46.90;;;;;;6111148;23;20151;-85
2023/10/27 07:24:32;;;;;;;1.55;1.27;;;17.80;46.70;;;;;;6135290;23;20605;-86
2023/10/27 07:27:02;;;;;;;1.50;1.40;;;17.90;46.70;;;;;;6136840;23;20173;-86
2023/10/27 07:29:28;;;;;;;1.00;1.00;;;17.90;46.60;;;;;;6087945;23;20198;-86
2023/10/27 07:31:53;;;;;;;1.58;1.42;;;17.90;46.60;;;;;;6129369;23;20511;-85
2023/10/27 07:34:19;;;;;;;1.38;1.27;;;17.90;46.50;;;;;;6130298;23;20155;-87
2023/10/27 07:36:45;;;;;;;1.25;1.15;;;17.90;46.50;;;;;;6130171;23;20183;-87
2023/10/27 07:39:14;;;;;;;1.33;1.23;;;17.90;46.50;;;;;;6154646;23;20216;-87
2023/10/27 07:41:43;;;;;;;1.13;1.02;;;17.90;46.50;;;;;;6084362;23;20151;-87
2023/10/27 07:44:09;;;;;;;1.55;1.33;;;17.90;46.40;;;;;;6111176;23;20243;-86
2023/10/27 07:46:37;;;;;;;1.30;1.20;;;17.80;46.30;;;;;;6085102;23;20166;-87
2023/10/27 07:49:03;;;;;;;1.33;1.23;;;17.90;47.00;;;;;;6110303;23;20142;-86
2023/10/27 07:51:34;;;;;;;1.35;1.23;;;17.90;46.30;;;;;;6086211;23;20151;-86
2023/10/27 07:54:04;;;;;;;1.05;0.93;;;17.90;46.30;;;;;;6133068;23;20148;-87
2023/10/27 07:56:32;;;;;;;2.10;1.75;;;17.90;46.40;;;;;;6088846;23;20171;-88
2023/10/27 07:59:00;;;;;;;1.27;1.08;;;18.00;47.70;;;;;;6089001;23;20186;-87
2023/10/27 08:01:26;;;;;;;2.55;1.38;;;17.90;46.90;;;;;;6107048;23;20223;-87
2023/10/27 08:03:52;;;;;;;1.45;1.33;;;18.00;47.60;;;;;;6105586;23;20588;-87
2023/10/27 08:06:18;;;;;;;1.10;1.00;;;18.00;46.90;;;;;;6080958;23;20155;-87
2023/10/27 08:08:46;;;;;;;1.33;1.23;;;17.90;46.40;;;;;;6057251;23;20246;-87
2023/10/27 08:11:19;;;;;;;1.30;1.20;;;18.00;47.00;;;;;;6057355;23;20228;-87
2023/10/27 08:13:46;;;;;;;2.10;1.20;;;18.00;46.40;;;;;;6058617;23;20150;-87
2023/10/27 08:16:18;;;;;;;1.20;1.10;;;17.90;46.80;;;;;;6080099;23;20178;-86
2023/10/27 08:18:46;;;;;;;1.20;1.10;;;18.00;46.40;;;;;;6056953;23;20164;-87
2023/10/27 08:21:14;;;;;;;1.67;1.40;;;17.90;46.40;;;;;;6058601;23;20176;-87
2023/10/27 08:23:40;;;;;;;1.35;1.25;;;17.90;46.40;;;;;;6084717;23;20179;-87
2023/10/27 08:26:09;;;;;;;1.65;1.50;;;17.90;46.40;;;;;;6060470;23;20156;-87
2023/10/27 08:28:39;;;;;;;1.20;1.10;;;17.90;46.60;;;;;;6060960;23;20176;-87
2023/10/27 08:31:05;;;;;;;1.90;1.40;;;17.90;46.40;;;;;;6058151;23;20279;-87
2023/10/27 08:33:31;;;;;;;1.13;1.02;;;18.00;46.40;;;;;;6080237;23;20168;-86
2023/10/27 08:36:05;;;;;;;1.60;1.50;;;17.90;46.50;;;;;;6055145;23;20208;-87
2023/10/27 08:38:32;;;;;;;1.50;1.40;;;17.90;46.30;;;;;;6057532;23;20156;-86
2023/10/27 08:41:05;;;;;;;1.30;1.20;;;18.00;46.40;;;;;;6057933;23;20152;-87
2023/10/27 08:43:32;;;;;;;1.67;1.35;;;18.00;46.20;;;;;;6057782;23;20159;-86
2023/10/27 08:46:06;;;;;;;1.40;1.30;;;17.90;46.10;;;;;;6105159;23;20200;-87
2023/10/27 08:48:32;;;;;;;1.40;1.30;;;17.90;46.00;;;;;;6057410;23;20156;-86
2023/10/27 08:51:04;;;;;;;1.30;1.20;;;17.90;46.00;;;;;;6080585;23;20140;-86
2023/10/27 08:53:30;;;;;;;1.33;1.23;;;18.00;46.10;;;;;;6056329;23;20150;-87
2023/10/27 08:55:58;;;;;;;1.58;1.40;;;18.00;46.10;;;;;;6054753;23;20191;-86
2023/10/27 08:58:29;;;;;;;1.65;1.20;;;17.90;46.00;;;;;;6151972;23;20154;-86
2023/10/27 09:00:55;;;;;;;1.40;1.30;;;18.00;46.00;;;;;;6137706;23;20146;-85
2023/10/27 09:03:22;;;;;;;1.23;1.13;;;18.00;46.00;;;;;;6163290;23;20147;-86
2023/10/27 09:05:47;;;;;;;1.63;1.30;;;18.00;46.00;;;;;;6187947;23;20139;-86
2023/10/27 09:08:20;;;;;;;1.50;1.40;;;18.00;46.00;;;;;;6162365;23;20562;-86
2023/10/27 09:10:50;;;;;;;1.33;1.23;;;18.00;45.90;;;;;;6077756;23;20156;-87
2023/10/27 09:13:29;;;;;;;1.50;1.40;;;18.00;46.00;;;;;;6131619;23;20148;-87
2023/10/27 09:16:04;;;;;;;2.08;1.25;;;18.10;46.00;;;;;;6051729;23;20204;-87
2023/10/27 09:18:39;;;;;;;1.30;1.20;;;18.00;46.00;;;;;;6026662;23;20164;-88
2023/10/27 09:21:14;;;;;;;1.60;1.50;;;18.00;46.00;;;;;;6030150;23;20157;-88
2023/10/27 09:24:00;;;;;;;1.20;1.10;;;18.00;46.00;;;;;;6030468;23;20149;-88
2023/10/27 09:27:02;;;;;;;1.58;1.48;;;18.00;45.90;;;;;;6002750;23;20158;-89
2023/10/27 09:29:47;;;;;;;1.70;1.42;;;18.00;45.90;;;;;;5983972;23;20253;-88
2023/10/27 09:32:34;;;;;;;1.50;1.40;;;18.10;45.90;;;;;;5978666;23;20154;-87
2023/10/27 09:35:15;;;;;;;1.52;1.42;;;18.10;45.90;;;;;;5951220;23;20158;-88
2023/10/27 09:37:59;;;;;;;;;;;;;;;;;;;;;
2023/10/27 09:40:37;;;;;;;1.60;1.50;;;18.00;45.70;;;;;;5934039;24;20183;-88
2023/10/27 09:43:09;;;;;;;1.60;1.30;;;18.00;45.80;;;;;;5838823;24;20213;-87
2023/10/27 09:45:35;;;;;;;1.55;1.40;;;18.10;45.90;;;;;;5882243;24;20164;-86
2023/10/27 09:48:02;;;;;;;1.58;1.48;;;18.00;45.80;;;;;;5867677;24;20157;-86
2023/10/27 09:50:30;;;;;;;1.40;1.30;;;18.00;45.80;;;;;;5938328;24;20164;-85
2023/10/27 09:53:04;;;;;;;1.40;1.30;;;18.00;45.90;;;;;;5937914;24;20179;-86
2023/10/27 09:55:34;;;;;;;2.15;1.48;;;18.00;45.90;;;;;;5936072;24;20184;-86
2023/10/27 09:58:03;;;;;;;1.48;1.38;;;18.00;45.90;;;;;;5953438;24;20236;-86
2023/10/27 10:00:29;;;;;;;1.30;1.20;;;18.00;45.90;;;;;;5941806;24;20679;-86
2023/10/27 10:02:56;;;;;;;1.38;1.27;;;18.00;45.80;;;;;;5972797;23;20161;-84
2023/10/27 10:05:29;;;;;;;2.45;1.70;;;18.10;45.90;;;;;;6025110;23;20157;-86
2023/10/27 10:07:56;;;;;;;1.73;1.60;;;18.10;45.80;;;;;;6030337;23;20232;-85
2023/10/27 10:10:33;;;;;;;1.55;1.45;;;18.00;45.80;;;;;;6034342;23;20179;-86
2023/10/27 10:13:09;;;;;;;1.50;1.40;;;18.00;45.90;;;;;;6129880;23;20158;-85
2023/10/27 10:15:44;;;;;;;1.55;1.45;;;18.00;45.80;;;;;;6132177;23;20198;-85
2023/10/27 10:18:50;;;;;;;1.50;1.40;;;18.00;45.80;;;;;;6133430;23;20186;-85
2023/10/27 10:21:33;;;;;;;1.52;1.42;;;18.00;45.80;;;;;;6073050;23;20178;-85
2023/10/27 10:24:05;;;;;;;1.45;1.35;;;18.00;45.80;;;;;;6142343;23;20135;-86
2023/10/27 10:27:05;;;;;;;1.40;1.30;;;18.00;45.90;;;;;;6141709;23;20136;-86
2023/10/27 10:29:33;;;;;;;1.40;1.30;;;18.00;45.90;;;;;;6155133;23;20201;-86
2023/10/27 10:32:35;;;;;;;1.65;1.55;;;18.00;46.10;;;;;;6145438;23;20189;-86
2023/10/27 10:35:22;;;;;;;1.50;1.40;;;18.10;45.80;;;;;;6141659;23;20158;-85
2023/10/27 10:37:51;;;;;;;1.88;1.40;;;18.10;45.80;;;;;;6159489;23;20170;-86
2023/10/27 10:40:23;;;;;;;1.70;1.52;;;18.10;45.80;;;;;;6135488;23;20214;-86
2023/10/27 10:43:19;;;;;;;1.38;1.27;;;18.00;45.80;;;;;;6160597;23;20131;-86
2023/10/27 10:45:50;;;;;;;1.67;1.58;;;18.00;45.80;;;;;;6188776;23;20150;-87
2023/10/27 10:48:18;;;;;;;1.55;1.45;;;18.10;45.80;;;;;;6090325;23;20162;-86
2023/10/27 10:50:44;;;;;;;1.58;1.48;;;18.10;45.80;;;;;;6137789;23;20191;-85
2023/10/27 10:53:17;;;;;;;1.42;1.33;;;18.10;45.80;;;;;;6159489;23;20139;-86
2023/10/27 10:55:45;;;;;;;1.40;1.30;;;18.10;45.70;;;;;;6137387;23;20237;-86
2023/10/27 10:58:19;;;;;;;1.33;1.20;;;18.10;45.70;;;;;;6138494;23;20150;-86
2023/10/27 11:00:44;;;;;;;1.50;1.40;;;18.10;45.70;;;;;;6137480;23;20162;-86
2023/10/27 11:03:11;;;;;;;1.58;1.48;;;18.10;45.70;;;;;;6135456;23;20474;-87
2023/10/27 11:05:41;;;;;;;1.60;1.50;;;18.10;45.70;;;;;;6135968;23;20581;-86
2023/10/27 11:08:13;;;;;;;1.48;1.38;;;18.10;45.70;;;;;;6168925;23;20138;-86
2023/10/27 11:10:46;;;;;;;1.38;1.27;;;18.10;45.70;;;;;;6144756;23;20234;-85
2023/10/27 11:13:14;;;;;;;1.90;1.45;;;18.20;45.70;;;;;;6101833;23;20148;-86
2023/10/27 11:15:44;;;;;;;1.70;1.60;;;18.10;45.70;;;;;;6078840;23;20184;-87
2023/10/27 11:18:14;;;;;;;1.73;1.63;;;18.10;45.70;;;;;;6110676;23;20144;-86
2023/10/27 11:20:43;;;;;;;1.42;1.33;;;18.10;45.70;;;;;;6135738;23;20163;-86
2023/10/27 11:23:17;;;;;;;1.20;1.10;;;18.10;45.70;;;;;;6023782;23;20618;-86
2023/10/27 11:25:44;;;;;;;1.67;1.52;;;18.10;45.70;;;;;;5999020;23;20210;-87
2023/10/27 11:28:22;;;;;;;1.50;1.40;;;18.00;45.60;;;;;;5994144;23;20605;-87
2023/10/27 11:31:05;;;;;;;1.55;1.33;;;18.10;45.70;;;;;;6017634;23;20290;-86
2023/10/27 11:34:11;;;;;;;1.50;1.40;;;18.10;45.70;;;;;;6018987;23;20516;-87
2023/10/27 11:37:01;;;;;;;1.65;1.55;;;18.10;45.70;;;;;;6051103;23;20181;-86
2023/10/27 11:39:39;;;;;;;1.90;1.60;;;18.20;45.70;;;;;;6051770;23;20721;-86
2023/10/27 11:42:13;;;;;;;1.40;1.30;;;18.10;45.60;;;;;;6041996;23;20156;-86
2023/10/27 11:44:44;;;;;;;1.40;1.30;;;18.20;45.50;;;;;;6090400;23;20179;-86
2023/10/27 11:47:10;;;;;;;1.35;1.25;;;18.20;45.50;;;;;;6041032;23;20155;-86
2023/10/27 11:49:36;;;;;;;1.58;1.48;;;18.20;45.50;;;;;;6062973;23;20588;-86
2023/10/27 11:52:06;;;;;;;1.38;1.27;;;18.20;45.50;;;;;;6087920;23;20132;-87
2023/10/27 11:54:35;;;;;;;1.50;1.40;;;18.20;45.50;;;;;;6092502;23;20247;-86
2023/10/27 11:57:04;;;;;;;1.40;1.30;;;18.20;45.50;;;;;;6198959;23;20218;-86
2023/10/27 11:59:30;;;;;;;1.30;1.20;;;18.20;45.60;;;;;;6173306;23;20185;-86
2023/10/27 12:01:56;;;;;;;1.50;1.33;;;18.20;45.50;;;;;;6173980;23;20151;-86
2023/10/27 12:04:22;;;;;;;1.58;1.33;;;18.20;45.50;;;;;;6149100;23;20174;-86
2023/10/27 12:06:52;;;;;;;1.50;1.40;;;18.10;45.60;;;;;;6172519;23;20138;-84
2023/10/27 12:09:19;;;;;;;1.60;1.50;;;18.10;45.60;;;;;;6147595;23;20147;-86
2023/10/27 12:11:47;;;;;;;1.70;1.40;;;18.10;45.60;;;;;;6192109;23;20159;-85
2023/10/27 12:14:13;;;;;;;1.60;1.50;;;18.10;45.60;;;;;;6139739;23;20151;-85
2023/10/27 12:16:41;;;;;;;1.55;1.30;;;18.20;45.50;;;;;;6166978;23;20494;-85
2023/10/27 12:19:09;;;;;;;1.20;1.10;;;18.20;45.40;;;;;;6169294;23;20155;-85
2023/10/27 12:21:36;;;;;;;1.40;1.30;;;18.20;45.40;;;;;;6147153;23;20197;-87
2023/10/27 12:24:04;;;;;;;1.17;1.08;;;18.20;45.50;;;;;;6149405;23;20195;-87
2023/10/27 12:26:30;;;;;;;1.55;1.45;;;18.20;45.60;;;;;;6152692;23;20234;-88
2023/10/27 12:28:56;;;;;;;1.30;1.20;;;18.20;45.50;;;;;;6152445;23;20187;-87
2023/10/27 12:31:39;;;;;;;1.45;1.35;;;18.20;45.50;;;;;;6151921;23;20504;-86
2023/10/27 12:34:05;;;;;;;1.23;1.13;;;18.20;45.40;;;;;;6129567;23;20147;-87
2023/10/27 12:36:35;;;;;;;1.42;1.33;;;18.20;45.40;;;;;;6116643;23;20190;-86
2023/10/27 12:39:03;;;;;;;1.33;1.23;;;18.20;45.40;;;;;;6033631;23;20161;-86
2023/10/27 12:41:29;;;;;;;1.50;1.40;;;18.20;45.50;;;;;;6081978;23;20735;-86
2023/10/27 12:43:55;;;;;;;1.23;1.10;;;18.20;45.50;;;;;;6051421;23;20150;-86
2023/10/27 12:46:23;;;;;;;1.63;1.30;;;18.20;45.40;;;;;;6005792;23;20153;-85
2023/10/27 12:48:53;;;;;;;1.40;1.30;;;18.20;45.50;;;;;;6003372;23;20157;-86
2023/10/27 12:51:23;;;;;;;1.45;1.25;;;18.20;45.50;;;;;;6004693;23;20140;-86
2023/10/27 12:53:51;;;;;;;1.33;1.20;;;18.20;45.50;;;;;;6006025;23;20180;-86
2023/10/27 12:56:24;;;;;;;1.10;1.00;;;18.20;45.40;;;;;;6027829;23;20181;-86
2023/10/27 12:58:54;;;;;;;1.48;1.30;;;18.20;45.50;;;;;;6008907;23;20158;-86